Time;durP1;ratioP1;P1;durP2;ratioP2;P2;SDS_P1;SDS_P2;PMS_P1;PMS_P2;Temp;Humidity;BMP_temperature;BMP_pressure;BME280_temperature;BME280_humidity;BME280_pressure;Samples;Min_cycle;Max_cycle;Signal;HPM_P1;HPM_P2
2022/03/17 00:01:24;;;;;;;;;;;7.70;92.10;;;;;;5108421;28;20412;-80
2022/03/17 00:03:49;;;;;;;;;;;7.70;92.10;;;;;;5108151;28;19908;-80
2022/03/17 00:06:15;;;;;;;;;;;7.70;92.20;;;;;;5107386;28;19977;-80
2022/03/17 00:08:41;;;;;;;;;;;7.80;92.50;;;;;;5107490;28;19968;-79
2022/03/17 00:11:06;;;;;;;;;;;7.70;92.40;;;;;;5112187;28;19960;-79
2022/03/17 00:13:32;;;;;;;;;;;7.70;92.50;;;;;;5110198;28;20030;-80
2022/03/17 00:15:57;;;;;;;;;;;7.70;92.60;;;;;;5089592;28;20409;-79
2022/03/17 00:18:23;;;;;;;;;;;7.70;92.60;;;;;;5107223;28;20007;-79
2022/03/17 00:20:49;;;;;;;;;;;7.70;92.70;;;;;;5084871;28;20231;-79
2022/03/17 00:23:15;;;;;;;;;;;7.60;92.80;;;;;;5103203;28;20463;-80
2022/03/17 00:25:40;;;;;;;;;;;7.60;92.80;;;;;;5102818;28;20427;-80
2022/03/17 00:28:06;;;;;;;;;;;7.60;92.80;;;;;;5103309;28;20494;-79
2022/03/17 00:30:31;;;;;;;;;;;7.60;92.70;;;;;;5083495;28;19915;-79
2022/03/17 00:32:57;;;;;;;;;;;7.60;92.60;;;;;;5101063;28;19908;-79
2022/03/17 00:35:42;;;;;;;;;;;7.60;92.70;;;;;;5100554;28;19912;-80
2022/03/17 00:38:13;;;;;;;;;;;7.60;92.60;;;;;;5104190;28;19986;-79
2022/03/17 00:40:39;;;;;;;;;;;7.60;92.60;;;;;;5104051;28;19915;-79
2022/03/17 00:43:05;;;;;;;;;;;7.50;92.60;;;;;;5086656;28;19908;-79
2022/03/17 00:45:32;;;;;;;;;;;7.60;92.60;;;;;;5105596;28;19919;-80
2022/03/17 00:47:58;;;;;;;;;;;7.60;92.60;;;;;;5105330;28;20007;-79
2022/03/17 00:50:23;;;;;;;;;;;7.50;92.40;;;;;;5085641;28;19950;-79
2022/03/17 00:52:49;;;;;;;;;;;7.50;92.30;;;;;;5104658;28;19951;-80
2022/03/17 00:55:15;;;;;;;;;;;7.50;92.30;;;;;;5105109;28;20416;-79
2022/03/17 00:57:40;;;;;;;;;;;7.50;92.50;;;;;;5086808;28;19933;-79
2022/03/17 01:00:07;;;;;;;;;;;7.40;92.40;;;;;;5089081;28;19912;-80
2022/03/17 01:02:33;;;;;;;;;;;7.50;92.40;;;;;;5110127;28;19992;-80
2022/03/17 01:04:59;;;;;;;;;;;7.40;92.50;;;;;;5101878;28;19969;-79
2022/03/17 01:07:24;;;;;;;;;;;7.40;92.50;;;;;;5103337;28;19923;-80
2022/03/17 01:09:50;;;;;;;;;;;7.40;92.70;;;;;;5102508;28;19919;-80
2022/03/17 01:12:15;;;;;;;;;;;7.40;92.80;;;;;;5101506;28;19912;-79
2022/03/17 01:14:41;;;;;;;;;;;7.40;92.80;;;;;;5101662;28;19912;-81
2022/03/17 01:17:07;;;;;;;;;;;7.40;92.80;;;;;;5101942;28;20439;-79
2022/03/17 01:19:33;;;;;;;;;;;7.40;92.90;;;;;;5083930;28;20006;-79
2022/03/17 01:21:59;;;;;;;;;;;7.40;92.90;;;;;;5103622;28;20047;-79
2022/03/17 01:24:24;;;;;;;;;;;7.40;92.90;;;;;;5102075;28;20587;-80
2022/03/17 01:26:50;;;;;;;;;;;7.40;92.90;;;;;;5102609;28;19911;-79
2022/03/17 01:29:16;;;;;;;;;;;7.30;93.00;;;;;;5102602;28;19991;-79
2022/03/17 01:31:41;;;;;;;;;;;7.30;93.00;;;;;;5101845;28;19908;-79
2022/03/17 01:34:07;;;;;;;;;;;7.30;93.10;;;;;;5103160;28;19961;-79
2022/03/17 01:36:33;;;;;;;;;;;7.30;93.20;;;;;;5102371;28;19944;-79
2022/03/17 01:39:01;;;;;;;;;;;7.10;93.20;;;;;;5101519;28;20262;-79
2022/03/17 01:41:26;;;;;;;;;;;7.00;93.70;;;;;;5082044;28;20108;-80
2022/03/17 01:43:52;;;;;;;;;;;7.00;93.70;;;;;;5083164;28;19915;-79
2022/03/17 01:46:18;;;;;;;;;;;6.90;93.80;;;;;;5083541;28;19969;-79
2022/03/17 01:48:44;;;;;;;;;;;7.00;93.80;;;;;;5083334;28;19916;-80
2022/03/17 01:51:09;;;;;;;;;;;7.00;93.80;;;;;;5105910;28;19908;-80
2022/03/17 01:53:36;;;;;;;;;;;6.90;93.90;;;;;;5087403;28;20413;-79
2022/03/17 01:56:02;;;;;;;;;;;6.90;93.90;;;;;;5088285;28;19916;-80
2022/03/17 01:58:27;;;;;;;;;;;6.90;94.00;;;;;;5087464;28;20358;-79
2022/03/17 02:00:53;;;;;;;;;;;6.90;94.10;;;;;;5088472;28;19912;-79
2022/03/17 02:03:19;;;;;;;;;;;6.90;94.10;;;;;;5106552;28;19908;-79
2022/03/17 02:05:45;;;;;;;;;;;6.90;94.00;;;;;;5087643;28;19908;-79
2022/03/17 02:08:11;;;;;;;;;;;6.90;94.10;;;;;;5088857;28;19920;-79
2022/03/17 02:13:22;;;;;;;;;;;6.90;94.00;;;;;;5107310;28;19958;-80
2022/03/17 02:15:51;;;;;;;;;;;6.90;93.90;;;;;;5106343;28;19951;-80
2022/03/17 02:18:17;;;;;;;;;;;6.90;94.00;;;;;;5105835;28;19915;-79
2022/03/17 02:20:43;;;;;;;;;;;6.90;94.00;;;;;;5106767;28;19916;-80
2022/03/17 02:26:11;;;;;;;;;;;6.90;93.90;;;;;;5120966;28;20256;-80
2022/03/17 02:28:36;;;;;;;;;;;6.90;93.80;;;;;;5118801;28;20698;-80
2022/03/17 02:31:02;;;;;;;;;;;6.90;94.00;;;;;;5106907;28;20294;-80
2022/03/17 02:33:28;;;;;;;;;;;6.90;94.00;;;;;;5107661;28;20208;-80
2022/03/17 02:35:53;;;;;;;;;;;6.90;93.90;;;;;;5106736;28;20394;-80
2022/03/17 02:38:20;;;;;;;;;;;6.90;94.00;;;;;;5105462;28;19935;-79
2022/03/17 02:40:52;;;;;;;;;;;6.90;94.00;;;;;;5104561;28;20020;-79
2022/03/17 02:43:18;;;;;;;;;;;6.90;94.20;;;;;;5105045;28;19915;-79
2022/03/17 02:45:44;;;;;;;;;;;7.00;93.90;;;;;;5085730;28;19919;-80
2022/03/17 02:48:11;;;;;;;;;;;6.90;94.00;;;;;;5105891;28;19920;-80
2022/03/17 02:50:36;;;;;;;;;;;6.80;94.00;;;;;;5104954;28;19914;-79
2022/03/17 02:53:06;;;;;;;;;;;6.80;94.00;;;;;;5107178;28;20198;-79
2022/03/17 02:55:32;;;;;;;;;;;6.80;94.00;;;;;;5088726;28;20002;-79
2022/03/17 02:57:58;;;;;;;;;;;6.80;94.00;;;;;;5107068;28;19908;-79
2022/03/17 03:00:23;;;;;;;;;;;6.80;94.20;;;;;;5110593;28;19918;-80
2022/03/17 03:02:49;;;;;;;;;;;6.80;94.20;;;;;;5109206;28;19957;-79
2022/03/17 03:05:15;;;;;;;;;;;7.20;94.30;;;;;;5108786;28;19911;-80
2022/03/17 03:07:41;;;;;;;;;;;6.80;94.20;;;;;;5115022;28;20758;-80
2022/03/17 03:10:07;;;;;;;;;;;6.80;94.10;;;;;;5109513;28;20235;-79
2022/03/17 03:12:33;;;;;;;;;;;6.80;94.10;;;;;;5107039;28;20471;-80
2022/03/17 03:14:59;;;;;;;;;;;6.80;94.00;;;;;;5109838;28;19986;-79
2022/03/17 03:17:25;;;;;;;;;;;6.80;94.10;;;;;;5092155;28;20365;-79
2022/03/17 03:19:51;;;;;;;;;;;6.80;94.50;;;;;;5110084;28;19919;-79
2022/03/17 03:22:17;;;;;;;;;;;6.80;94.20;;;;;;5092145;28;19919;-80
2022/03/17 03:24:43;;;;;;;;;;;6.80;94.20;;;;;;5088063;28;20109;-79
2022/03/17 03:27:09;;;;;;;;;;;6.80;94.20;;;;;;5085424;28;20003;-79
2022/03/17 03:29:34;;;;;;;;;;;6.80;94.10;;;;;;5103176;28;19972;-79
2022/03/17 03:32:03;;;;;;;;;;;6.80;94.20;;;;;;5103441;28;19914;-79
2022/03/17 03:34:29;;;;;;;;;;;6.80;94.30;;;;;;5104059;28;19962;-79
2022/03/17 03:39:39;;;;;;;;;;;6.70;94.40;;;;;;5102314;28;20319;-79
2022/03/17 03:42:05;;;;;;;;;;;6.80;94.40;;;;;;5084116;28;19916;-79
2022/03/17 03:44:31;;;;;;;;;;;6.70;94.30;;;;;;5102814;28;19908;-79
2022/03/17 03:46:57;;;;;;;;;;;6.60;94.50;;;;;;5101829;28;19919;-79
2022/03/17 03:49:24;;;;;;;;;;;6.60;94.50;;;;;;5102052;28;19923;-80
2022/03/17 03:51:50;;;;;;;;;;;7.50;94.90;;;;;;5084712;28;19930;-80
2022/03/17 03:54:16;;;;;;;;;;;6.60;94.70;;;;;;5102737;28;20577;-79
2022/03/17 03:56:43;;;;;;;;;;;6.50;94.70;;;;;;5101831;28;20394;-80
2022/03/17 03:59:11;;;;;;;;;;;6.50;94.70;;;;;;5101534;28;20003;-79
2022/03/17 04:01:37;;;;;;;;;;;6.60;94.90;;;;;;5101677;28;19947;-80
2022/03/17 04:04:02;;;;;;;;;;;6.60;94.80;;;;;;5101983;28;19947;-79
2022/03/17 04:06:29;;;;;;;;;;;6.60;94.70;;;;;;5101827;28;20014;-80
2022/03/17 04:08:54;;;;;;;;;;;6.60;94.70;;;;;;5101663;28;19912;-80
2022/03/17 04:11:20;;;;;;;;;;;6.60;94.70;;;;;;5101713;28;20287;-80
2022/03/17 04:13:45;;;;;;;;;;;6.60;94.60;;;;;;5102152;28;20006;-80
2022/03/17 04:16:11;;;;;;;;;;;6.60;94.60;;;;;;5102078;28;19955;-79
2022/03/17 04:18:37;;;;;;;;;;;6.60;94.60;;;;;;5083355;28;19908;-80
2022/03/17 04:21:02;;;;;;;;;;;6.60;94.60;;;;;;5101182;28;20161;-79
2022/03/17 04:23:28;;;;;;;;;;;6.60;94.60;;;;;;5101614;28;20135;-79
2022/03/17 04:25:54;;;;;;;;;;;6.60;94.50;;;;;;5082164;28;19908;-79
2022/03/17 04:28:19;;;;;;;;;;;6.60;94.50;;;;;;5101241;28;19908;-80
2022/03/17 04:30:45;;;;;;;;;;;6.60;94.50;;;;;;5101329;28;20101;-80
2022/03/17 04:33:11;;;;;;;;;;;6.60;94.50;;;;;;5101723;28;19912;-80
2022/03/17 04:35:37;;;;;;;;;;;6.70;94.50;;;;;;5100682;27;19911;-79
2022/03/17 04:38:02;;;;;;;;;;;8.90;95.20;;;;;;5081947;28;19919;-80
2022/03/17 04:40:28;;;;;;;;;;;6.60;94.80;;;;;;5101865;28;19922;-80
2022/03/17 04:42:53;;;;;;;;;;;6.70;94.90;;;;;;5102712;28;20358;-80
2022/03/17 04:45:20;;;;;;;;;;;6.60;94.90;;;;;;5103347;28;20286;-79
2022/03/17 04:47:46;;;;;;;;;;;6.60;95.00;;;;;;5082981;28;19920;-79
2022/03/17 04:50:11;;;;;;;;;;;6.60;95.40;;;;;;5102306;28;19912;-80
2022/03/17 04:55:21;;;;;;;;;;;6.50;95.60;;;;;;5103174;28;19969;-80
2022/03/17 04:57:47;;;;;;;;;;;6.50;95.70;;;;;;5102737;28;20454;-79
2022/03/17 05:00:13;;;;;;;;;;;6.50;95.70;;;;;;5101998;28;20128;-80
2022/03/17 05:02:39;;;;;;;;;;;6.50;95.70;;;;;;5103644;28;20389;-79
2022/03/17 05:05:04;;;;;;;;;;;6.50;95.80;;;;;;5104237;28;20003;-80
2022/03/17 05:07:30;;;;;;;;;;;6.40;95.80;;;;;;5105503;28;20208;-80
2022/03/17 05:09:56;;;;;;;;;;;6.40;96.00;;;;;;5104761;28;19934;-79
2022/03/17 05:12:21;;;;;;;;;;;6.50;96.30;;;;;;5089348;28;20358;-80
2022/03/17 05:14:47;;;;;;;;;;;6.40;96.20;;;;;;5092430;28;19915;-80
2022/03/17 05:17:12;;;;;;;;;;;6.30;96.30;;;;;;5102761;28;20135;-79
2022/03/17 05:19:38;;;;;;;;;;;6.30;96.50;;;;;;5102623;28;20019;-79
2022/03/17 05:22:04;;;;;;;;;;;6.30;96.50;;;;;;5102129;28;20352;-79
2022/03/17 05:24:30;;;;;;;;;;;6.30;96.60;;;;;;5104723;28;20034;-79
2022/03/17 05:26:57;;;;;;;;;;;6.30;96.60;;;;;;5088485;28;19908;-80
2022/03/17 05:29:23;;;;;;;;;;;6.30;96.50;;;;;;5107249;28;19971;-80
2022/03/17 05:31:49;;;;;;;;;;;6.20;96.50;;;;;;5106618;28;20015;-79
2022/03/17 05:34:14;;;;;;;;;;;6.20;96.50;;;;;;5105853;28;19907;-80
2022/03/17 05:36:40;;;;;;;;;;;6.20;96.60;;;;;;5106077;28;20006;-79
2022/03/17 05:39:05;;;;;;;;;;;6.20;96.60;;;;;;5105799;28;19912;-79
2022/03/17 05:41:31;;;;;;;;;;;6.20;96.50;;;;;;5106002;28;19915;-79
2022/03/17 05:43:56;;;;;;;;;;;6.30;96.50;;;;;;5106553;28;19908;-80
2022/03/17 05:46:25;;;;;;;;;;;6.20;96.40;;;;;;5086814;28;20037;-80
2022/03/17 05:48:51;;;;;;;;;;;6.30;96.50;;;;;;5104026;28;19912;-80
2022/03/17 05:51:16;;;;;;;;;;;6.30;96.50;;;;;;5104426;28;20265;-79
2022/03/17 05:53:42;;;;;;;;;;;6.30;96.40;;;;;;5105162;28;20271;-80
2022/03/17 05:56:08;;;;;;;;;;;6.40;96.10;;;;;;5105433;28;19915;-79
2022/03/17 05:58:33;;;;;;;;;;;6.30;96.20;;;;;;5105631;28;19907;-79
2022/03/17 06:00:59;;;;;;;;;;;6.40;96.10;;;;;;5105884;28;20137;-79
2022/03/17 06:03:25;;;;;;;;;;;6.40;96.10;;;;;;5106465;28;19907;-80
2022/03/17 06:05:50;;;;;;;;;;;6.40;96.00;;;;;;5107983;28;20350;-79
2022/03/17 06:08:16;;;;;;;;;;;6.40;96.00;;;;;;5116597;28;20159;-80
2022/03/17 06:10:42;;;;;;;;;;;6.40;96.00;;;;;;5116662;28;19912;-80
2022/03/17 06:13:07;;;;;;;;;;;6.40;96.10;;;;;;5110629;28;19950;-80
2022/03/17 06:15:35;;;;;;;;;;;6.40;96.10;;;;;;5092603;28;19952;-79
2022/03/17 06:18:02;;;;;;;;;;;6.40;96.00;;;;;;5109791;28;19973;-79
2022/03/17 06:20:29;;;;;;;;;;;6.50;95.90;;;;;;5112997;28;19912;-80
2022/03/17 06:22:56;;;;;;;;;;;6.50;95.80;;;;;;5111753;28;19999;-80
2022/03/17 06:25:23;;;;;;;;;;;6.50;95.70;;;;;;5112703;28;19981;-79
2022/03/17 06:27:49;;;;;;;;;;;6.60;95.50;;;;;;5110855;28;20007;-79
2022/03/17 06:30:15;;;;;;;;;;;6.60;95.30;;;;;;5105991;28;20549;-79
2022/03/17 06:32:41;;;;;;;;;;;6.60;95.20;;;;;;5106104;28;20310;-79
2022/03/17 06:35:13;;;;;;;;;;;6.60;95.00;;;;;;5106398;28;20223;-79
2022/03/17 06:37:39;;;;;;;;;;;6.70;94.60;;;;;;5105906;28;20370;-79
2022/03/17 06:40:05;;;;;;;;;;;6.40;94.30;;;;;;5106439;28;19995;-79
2022/03/17 06:42:31;;;;;;;;;;;6.60;94.30;;;;;;5106260;28;19961;-80
2022/03/17 06:44:57;;;;;;;;;;;6.60;94.30;;;;;;5088306;28;20344;-79
2022/03/17 06:47:22;;;;;;;;;;;6.60;94.50;;;;;;5087948;28;20077;-80
2022/03/17 06:49:48;;;;;;;;;;;6.60;94.50;;;;;;5106460;28;20498;-79
2022/03/17 06:52:15;;;;;;;;;;;6.60;94.80;;;;;;5088188;28;19969;-79
2022/03/17 06:54:40;;;;;;;;;;;6.60;94.80;;;;;;5106639;28;20522;-79
2022/03/17 06:57:06;;;;;;;;;;;6.70;95.10;;;;;;5106794;28;19908;-79
2022/03/17 06:59:31;;;;;;;;;;;6.70;95.40;;;;;;5105538;28;19919;-80
2022/03/17 07:01:57;;;;;;;;;;;6.70;95.50;;;;;;5105885;28;20009;-79
2022/03/17 07:04:23;;;;;;;;;;;6.70;95.40;;;;;;5089380;28;20601;-79
2022/03/17 07:06:48;;;;;;;;;;;6.70;95.30;;;;;;5104733;28;19912;-79
2022/03/17 07:09:14;;;;;;;;;;;6.80;95.30;;;;;;5107313;28;19963;-80
2022/03/17 07:11:40;;;;;;;;;;;6.80;95.10;;;;;;5107627;28;20575;-79
2022/03/17 07:14:06;;;;;;;;;;;6.90;94.80;;;;;;5108348;28;20273;-80
2022/03/17 07:16:31;;;;;;;;;;;6.90;94.60;;;;;;5092500;28;19972;-79
2022/03/17 07:18:57;;;;;;;;;;;7.00;94.40;;;;;;5112968;28;19930;-79
2022/03/17 07:21:22;;;;;;;;;;;7.00;94.10;;;;;;5107477;28;19916;-79
2022/03/17 07:23:48;;;;;;;;;;;7.10;94.20;;;;;;5104783;28;19919;-80
2022/03/17 07:26:14;;;;;;;;;;;7.10;94.00;;;;;;5105381;28;20226;-79
2022/03/17 07:28:39;;;;;;;;;;;7.10;93.90;;;;;;5087972;28;20340;-79
2022/03/17 07:31:05;;;;;;;;;;;7.10;93.60;;;;;;5105601;28;19954;-79
2022/03/17 07:33:32;;;;;;;;;;;7.20;93.70;;;;;;5107010;28;19908;-79
2022/03/17 07:35:57;;;;;;;;;;;7.20;93.60;;;;;;5110662;28;19918;-80
2022/03/17 07:38:23;;;;;;;;;;;7.20;93.40;;;;;;5111935;28;19916;-79
2022/03/17 07:40:48;;;;;;;;;;;7.20;93.40;;;;;;5112903;28;19923;-80
2022/03/17 07:43:14;;;;;;;;;;;7.20;93.00;;;;;;5112848;28;19908;-80
2022/03/17 07:45:40;;;;;;;;;;;7.10;93.30;;;;;;5112042;28;19944;-80
2022/03/17 07:48:06;;;;;;;;;;;7.10;93.10;;;;;;5109430;28;20459;-79
2022/03/17 07:50:32;;;;;;;;;;;7.10;93.10;;;;;;5083672;28;19955;-80
2022/03/17 07:52:59;;;;;;;;;;;7.10;93.00;;;;;;5102543;28;19916;-79
2022/03/17 07:55:24;;;;;;;;;;;7.10;92.90;;;;;;5102260;28;19958;-79
2022/03/17 07:57:50;;;;;;;;;;;7.20;92.90;;;;;;5102441;28;20385;-79
2022/03/17 08:00:16;;;;;;;;;;;7.20;93.00;;;;;;5083352;28;20115;-80
2022/03/17 08:02:42;;;;;;;;;;;7.30;93.00;;;;;;5102646;28;19912;-79
2022/03/17 08:05:08;;;;;;;;;;;7.20;93.00;;;;;;5101941;28;19912;-80
2022/03/17 08:07:34;;;;;;;;;;;7.30;93.10;;;;;;5103305;28;20030;-79
2022/03/17 08:10:02;;;;;;;;;;;7.40;93.00;;;;;;5102662;28;20598;-80
2022/03/17 08:12:28;;;;;;;;;;;7.50;92.80;;;;;;5084663;28;19951;-80
2022/03/17 08:14:53;;;;;;;;;;;7.40;92.60;;;;;;5102779;28;19958;-80
2022/03/17 08:17:19;;;;;;;;;;;7.40;92.50;;;;;;5101994;28;19965;-79
2022/03/17 08:19:45;;;;;;;;;;;7.40;92.50;;;;;;5102469;28;19961;-79
2022/03/17 08:22:12;;;;;;;;;;;7.50;92.60;;;;;;5101719;28;20387;-80
2022/03/17 08:24:37;;;;;;;;;;;7.50;92.60;;;;;;5102638;28;19929;-80
2022/03/17 08:27:04;;;;;;;;;;;7.60;92.40;;;;;;5103894;28;20381;-79
2022/03/17 08:29:30;;;;;;;;;;;9.10;92.60;;;;;;5085334;28;20345;-80
2022/03/17 08:31:55;;;;;;;;;;;7.70;92.10;;;;;;5104349;28;20056;-80
2022/03/17 08:34:21;;;;;;;;;;;7.70;92.00;;;;;;5103367;28;19912;-80
2022/03/17 08:36:47;;;;;;;;;;;7.70;92.00;;;;;;5104406;28;19912;-79
2022/03/17 08:39:12;;;;;;;;;;;7.70;92.10;;;;;;5105383;28;19935;-79
2022/03/17 08:41:38;;;;;;;;;;;7.80;91.90;;;;;;5088798;28;20018;-79
2022/03/17 08:44:03;;;;;;;;;;;7.80;92.00;;;;;;5106953;28;19915;-80
2022/03/17 08:49:19;;;;;;;;;;;7.80;91.90;;;;;;5106627;28;19943;-79
2022/03/17 08:52:03;;;;;;;;;;;7.80;92.00;;;;;;5107894;28;19951;-80
2022/03/17 08:54:30;;;;;;;;;;;7.90;91.70;;;;;;5108686;28;19908;-79
2022/03/17 08:56:59;;;;;;;;;;;7.90;91.20;;;;;;5108584;28;19971;-79
2022/03/17 08:59:29;;;;;;;;;;;7.90;91.10;;;;;;5109745;28;19908;-80
2022/03/17 09:01:54;;;;;;;;;;;7.90;91.00;;;;;;5109589;28;19943;-80
2022/03/17 09:04:28;;;;;;;;;;;8.00;91.00;;;;;;5109146;28;19908;-80
2022/03/17 09:06:59;;;;;;;;;;;8.00;90.90;;;;;;5109036;28;19919;-80
2022/03/17 09:09:29;;;;;;;;;;;8.10;90.40;;;;;;5111084;28;19911;-79
2022/03/17 09:11:55;;;;;;;;;;;8.20;90.40;;;;;;5110109;28;20372;-79
2022/03/17 09:14:21;;;;;;;;;;;8.30;90.50;;;;;;5111440;28;20008;-80
2022/03/17 09:16:49;;;;;;;;;;;8.30;90.00;;;;;;5091754;28;19908;-80
2022/03/17 09:19:14;;;;;;;;;;;8.30;89.60;;;;;;5113433;28;20388;-80
2022/03/17 09:21:40;;;;;;;;;;;8.30;89.60;;;;;;5113994;28;20003;-80
2022/03/17 09:24:06;;;;;;;;;;;8.30;88.10;;;;;;5113745;28;19936;-80
2022/03/17 09:26:31;;;;;;;;;;;8.20;88.50;;;;;;5114894;28;19911;-80
2022/03/17 09:28:57;;;;;;;;;;;8.20;88.70;;;;;;5112784;28;19907;-80
2022/03/17 09:31:23;;;;;;;;;;;8.30;88.60;;;;;;5110782;28;19907;-80
2022/03/17 09:33:49;;;;;;;;;;;8.20;88.80;;;;;;5086454;28;19907;-79
2022/03/17 09:36:16;;;;;;;;;;;8.20;89.20;;;;;;5105562;28;20429;-79
2022/03/17 09:38:42;;;;;;;;;;;8.20;89.10;;;;;;5086716;28;19984;-79
2022/03/17 09:41:23;;;;;;;;;;;8.20;89.20;;;;;;5101327;28;19923;-80
2022/03/17 09:43:48;;;;;;;;;;;8.30;89.60;;;;;;5101835;28;19953;-80
2022/03/17 09:46:15;;;;;;;;;;;8.40;89.30;;;;;;5101519;28;20347;-79
2022/03/17 09:48:42;;;;;;;;;;;8.30;89.30;;;;;;5101143;28;19969;-80
2022/03/17 09:51:08;;;;;;;;;;;8.40;89.00;;;;;;5105560;28;19907;-79
2022/03/17 09:53:34;;;;;;;;;;;8.30;88.30;;;;;;5106703;28;19983;-79
2022/03/17 09:56:00;;;;;;;;;;;7.60;88.20;;;;;;5109262;28;19951;-80
2022/03/17 09:58:25;;;;;;;;;;;8.20;89.30;;;;;;5105884;28;19915;-80
2022/03/17 10:00:53;;;;;;;;;;;9.20;88.80;;;;;;5103868;28;19919;-79
2022/03/17 10:03:19;;;;;;;;;;;8.30;88.40;;;;;;5102071;28;19976;-80
2022/03/17 10:05:46;;;;;;;;;;;8.40;88.50;;;;;;5102707;28;19980;-80
2022/03/17 10:08:12;;;;;;;;;;;8.60;87.70;;;;;;5101569;28;20366;-80
2022/03/17 10:10:38;;;;;;;;;;;8.50;87.70;;;;;;5102646;28;20112;-80
2022/03/17 10:13:04;;;;;;;;;;;8.50;88.00;;;;;;5103923;28;20119;-79
2022/03/17 10:15:30;;;;;;;;;;;8.50;88.10;;;;;;5102718;28;20386;-79
2022/03/17 10:17:56;;;;;;;;;;;8.50;87.70;;;;;;5102846;28;20128;-80
2022/03/17 10:20:24;;;;;;;;;;;8.60;87.70;;;;;;5083852;28;20294;-80
2022/03/17 10:22:53;;;;;;;;;;;8.60;87.90;;;;;;5102444;28;20584;-79
2022/03/17 10:25:19;;;;;;;;;;;8.50;87.90;;;;;;5102515;28;19915;-79
2022/03/17 10:27:46;;;;;;;;;;;8.60;87.70;;;;;;5102432;28;19907;-79
2022/03/17 10:30:12;;;;;;;;;;;8.60;87.40;;;;;;5103352;28;20236;-79
2022/03/17 10:32:38;;;;;;;;;;;8.50;87.70;;;;;;5102297;28;19908;-80
2022/03/17 10:35:05;;;;;;;;;;;8.60;87.40;;;;;;5102606;28;19968;-79
2022/03/17 10:37:33;;;;;;;;;;;8.40;87.60;;;;;;5102563;28;20010;-79
2022/03/17 10:40:05;;;;;;;;;;;8.40;87.90;;;;;;5103825;28;20285;-79
2022/03/17 10:42:31;;;;;;;;;;;8.40;87.90;;;;;;5103543;28;19923;-79
2022/03/17 10:44:58;;;;;;;;;;;8.50;88.00;;;;;;5104472;28;20016;-79
2022/03/17 10:47:26;;;;;;;;;;;8.40;88.30;;;;;;5104149;28;20295;-79
2022/03/17 10:49:59;;;;;;;;;;;8.40;88.00;;;;;;5105351;28;20165;-80
2022/03/17 10:52:24;;;;;;;;;;;8.40;88.00;;;;;;5105331;28;20147;-79
2022/03/17 10:54:56;;;;;;;;;;;8.40;87.70;;;;;;5103035;28;20294;-79
2022/03/17 10:57:24;;;;;;;;;;;8.40;87.60;;;;;;5103455;28;19912;-79
2022/03/17 10:59:53;;;;;;;;;;;8.50;87.70;;;;;;5103460;28;19908;-79
2022/03/17 11:02:25;;;;;;;;;;;8.50;87.70;;;;;;5104738;28;20201;-79
2022/03/17 11:04:51;;;;;;;;;;;8.60;88.00;;;;;;5103599;28;19920;-79
2022/03/17 11:07:18;;;;;;;;;;;8.60;88.10;;;;;;5103952;28;19915;-79
2022/03/17 11:09:44;;;;;;;;;;;8.60;87.70;;;;;;5103994;28;19908;-80
2022/03/17 11:12:11;;;;;;;;;;;8.70;87.60;;;;;;5103888;28;19912;-79
2022/03/17 11:14:41;;;;;;;;;;;8.70;86.10;;;;;;5086123;28;19908;-79
2022/03/17 11:17:07;;;;;;;;;;;8.80;85.80;;;;;;5086364;28;20107;-80
2022/03/17 11:19:33;;;;;;;;;;;8.80;85.90;;;;;;5106984;28;19975;-80
2022/03/17 11:22:08;;;;;;;;;;;8.80;86.00;;;;;;5105652;28;19925;-79
2022/03/17 11:24:33;;;;;;;;;;;8.80;85.80;;;;;;5109260;28;19908;-80
2022/03/17 11:27:09;;;;;;;;;;;8.90;85.70;;;;;;5109741;28;20204;-79
2022/03/17 11:29:44;;;;;;;;;;;9.00;85.30;;;;;;5092744;28;20199;-79
2022/03/17 11:32:23;;;;;;;;;;;9.00;85.60;;;;;;5114802;28;19908;-79
2022/03/17 11:34:49;;;;;;;;;;;9.10;84.60;;;;;;5106675;28;20239;-79
2022/03/17 11:37:27;;;;;;;;;;;9.10;84.20;;;;;;5088145;28;20362;-79
2022/03/17 11:39:58;;;;;;;;;;;9.00;84.70;;;;;;5107548;28;20416;-79
2022/03/17 11:42:42;;;;;;;;;;;9.00;84.20;;;;;;5106951;28;19916;-79
2022/03/17 11:45:31;;;;;;;;;;;9.00;84.60;;;;;;5107169;28;19950;-79
2022/03/17 11:47:58;;;;;;;;;;;9.00;84.70;;;;;;5003386;28;19921;-79
2022/03/17 11:50:28;;;;;;;;;;;8.90;85.50;;;;;;5003437;28;19916;-79
2022/03/17 11:53:01;;;;;;;;;;;8.90;85.60;;;;;;5002949;28;19913;-80
2022/03/17 11:55:32;;;;;;;;;;;8.90;85.50;;;;;;5003517;28;20376;-79
2022/03/17 11:58:25;;;;;;;;;;;8.90;85.60;;;;;;5006837;28;19909;-79
2022/03/17 12:01:05;;;;;;;;;;;8.80;85.50;;;;;;5007158;28;19940;-79
2022/03/17 12:03:39;;;;;;;;;;;8.80;85.50;;;;;;5007059;28;20404;-80
2022/03/17 12:06:12;;;;;;;;;;;8.70;85.50;;;;;;5006708;28;19909;-79
2022/03/17 12:08:39;;;;;;;;;;;8.70;85.60;;;;;;5005137;28;20016;-79
2022/03/17 12:11:08;;;;;;;;;;;8.70;85.40;;;;;;5004803;28;19909;-79
2022/03/17 12:13:37;;;;;;;;;;;8.80;85.40;;;;;;5004710;28;19956;-79
2022/03/17 12:16:04;;;;;;;;;;;8.80;85.00;;;;;;5005017;28;19972;-79
2022/03/17 12:18:30;;;;;;;;;;;8.80;85.00;;;;;;5004922;28;20169;-79
2022/03/17 12:20:57;;;;;;;;;;;8.80;83.90;;;;;;5005261;28;19940;-79
2022/03/17 12:23:41;;;;;;;;;;;8.80;84.60;;;;;;5006885;28;20447;-79
2022/03/17 12:26:07;;;;;;;;;;;8.70;83.90;;;;;;5113078;28;19919;-79
2022/03/17 12:28:32;;;;;;;;;;;8.90;84.00;;;;;;5117311;28;20232;-79
2022/03/17 12:30:58;;;;;;;;;;;8.90;84.00;;;;;;5117808;28;20023;-80
2022/03/17 12:33:25;;;;;;;;;;;9.00;82.20;;;;;;5115821;28;19908;-79
2022/03/17 12:36:04;;;;;;;;;;;9.10;81.90;;;;;;5107262;27;20531;-80
2022/03/17 12:38:29;;;;;;;;;;;9.20;81.60;;;;;;5107063;28;19924;-79
2022/03/17 12:40:56;;;;;;;;;;;9.30;81.00;;;;;;5105930;28;19915;-79
2022/03/17 12:43:24;;;;;;;;;;;9.40;80.20;;;;;;5106405;28;20560;-80
2022/03/17 12:45:51;;;;;;;;;;;12.10;81.40;;;;;;5106782;28;20341;-79
2022/03/17 12:48:17;;;;;;;;;;;9.60;79.80;;;;;;5086562;28;19996;-80
2022/03/17 12:50:44;;;;;;;;;;;9.70;78.80;;;;;;5104927;28;19922;-79
2022/03/17 12:53:09;;;;;;;;;;;9.80;78.10;;;;;;5105800;28;19999;-79
2022/03/17 12:55:35;;;;;;;;;;;9.80;77.40;;;;;;5105448;28;20226;-79
2022/03/17 12:58:02;;;;;;;;;;;10.00;77.90;;;;;;5104990;28;19911;-79
2022/03/17 13:00:28;;;;;;;;;;;8.50;75.40;;;;;;5105822;28;20393;-80
2022/03/17 13:02:57;;;;;;;;;;;10.10;76.20;;;;;;5105924;28;19912;-79
2022/03/17 13:08:08;;;;;;;;;;;10.10;76.60;;;;;;5105243;28;20417;-79
2022/03/17 13:16:06;;;;;;;;;;;10.10;75.80;;;;;;5023863;28;20304;-80
2022/03/17 13:18:45;;;;;;;;;;;10.10;75.10;;;;;;5023179;28;19956;-80
2022/03/17 13:21:11;;;;;;;;;;;10.10;74.30;;;;;;5021866;28;19924;-79
2022/03/17 13:23:37;;;;;;;;;;;10.00;74.60;;;;;;5022677;28;20091;-80
2022/03/17 13:26:03;;;;;;;;;;;10.00;74.80;;;;;;5023417;28;20292;-79
2022/03/17 13:28:29;;;;;;;;;;;9.90;73.80;;;;;;5023866;28;19909;-79
2022/03/17 13:30:54;;;;;;;;;;;9.60;74.30;;;;;;5027666;28;19909;-80
2022/03/17 13:33:27;;;;;;;;;;;9.70;75.00;;;;;;5026103;28;19921;-79
2022/03/17 13:35:53;;;;;;;;;;;9.70;75.00;;;;;;5027952;28;19924;-79
2022/03/17 13:38:20;;;;;;;;;;;9.70;75.60;;;;;;5027527;28;20062;-80
2022/03/17 13:40:46;;;;;;;;;;;9.80;75.70;;;;;;5029047;28;19917;-79
2022/03/17 13:43:13;;;;;;;;;;;9.80;75.30;;;;;;5010147;28;20158;-79
2022/03/17 13:45:46;;;;;;;;;;;9.80;75.20;;;;;;5021982;28;20418;-79
2022/03/17 13:48:13;;;;;;;;;;;9.80;74.90;;;;;;5023364;28;19960;-79
2022/03/17 13:50:59;;;;;;;;;;;9.90;74.70;;;;;;5069844;28;19930;-79
2022/03/17 13:53:25;;;;;;;;;;;9.80;74.50;;;;;;5106403;28;19915;-79
2022/03/17 13:55:55;;;;;;;;;;;9.80;74.90;;;;;;5104184;28;20466;-79
2022/03/17 13:58:21;;;;;;;;;;;9.80;74.90;;;;;;5105387;28;19907;-79
2022/03/17 14:00:48;;;;;;;;;;;9.80;74.90;;;;;;5104750;28;19911;-79
2022/03/17 14:03:17;;;;;;;;;;;9.80;74.50;;;;;;5086410;28;20006;-79
2022/03/17 14:06:02;;;;;;;;;;;9.80;74.80;;;;;;5105788;28;19962;-80
2022/03/17 14:08:28;;;;;;;;;;;9.80;74.50;;;;;;5105647;28;19915;-79
2022/03/17 14:10:56;;;;;;;;;;;9.90;74.30;;;;;;5105853;28;19908;-79
2022/03/17 14:13:22;;;;;;;;;;;10.00;72.70;;;;;;5106142;28;19911;-79
2022/03/17 14:15:51;;;;;;;;;;;9.90;73.80;;;;;;5089458;28;20245;-79
2022/03/17 14:18:18;;;;;;;;;;;9.90;73.50;;;;;;5088920;28;19951;-79
2022/03/17 14:20:46;;;;;;;;;;;9.90;73.50;;;;;;5087755;28;19912;-79
2022/03/17 14:25:56;;;;;;;;;;;9.90;73.40;;;;;;5105975;28;19915;-79
2022/03/17 14:28:22;;;;;;;;;;;9.80;73.80;;;;;;5105972;28;19908;-79
2022/03/17 14:30:48;;;;;;;;;;;9.80;73.50;;;;;;5106530;28;20402;-79
2022/03/17 14:33:15;;;;;;;;;;;9.80;73.80;;;;;;5088237;28;20697;-79
2022/03/17 14:35:41;;;;;;;;;;;9.80;75.40;;;;;;5090177;28;20358;-79
2022/03/17 14:38:06;;;;;;;;;;;9.70;75.60;;;;;;5107166;28;19914;-79
2022/03/17 14:40:32;;;;;;;;;;;9.70;75.90;;;;;;5106353;28;20022;-79
2022/03/17 14:42:58;;;;;;;;;;;9.60;75.70;;;;;;5105380;28;19908;-79
2022/03/17 14:45:25;;;;;;;;;;;9.50;75.80;;;;;;5106219;28;19996;-79
2022/03/17 14:47:51;;;;;;;;;;;9.50;76.70;;;;;;5107413;28;20084;-79
2022/03/17 14:50:16;;;;;;;;;;;9.40;76.90;;;;;;5106808;28;19919;-79
2022/03/17 14:52:44;;;;;;;;;;;9.40;77.20;;;;;;5106291;28;20401;-79